sensor_id;sensor_type;location;lat;lon;timestamp;P1;durP1;ratioP1;P2;durP2;ratioP2
11113;SDS011;5610;52.154;9.198;2023-12-20T00:02:38;11.13;;;10.03;;
11113;SDS011;5610;52.154;9.198;2023-12-20T00:05:23;10.60;;;9.60;;
11113;SDS011;5610;52.154;9.198;2023-12-20T00:08:08;10.87;;;9.87;;
11113;SDS011;5610;52.154;9.198;2023-12-20T00:10:53;12.50;;;9.57;;
11113;SDS011;5610;52.154;9.198;2023-12-20T00:13:38;11.07;;;9.83;;
11113;SDS011;5610;52.154;9.198;2023-12-20T00:16:23;11.00;;;9.50;;
11113;SDS011;5610;52.154;9.198;2023-12-20T00:19:09;12.33;;;10.13;;
11113;SDS011;5610;52.154;9.198;2023-12-20T00:21:55;12.40;;;9.77;;
11113;SDS011;5610;52.154;9.198;2023-12-20T00:24:40;11.47;;;9.20;;
11113;SDS011;5610;52.154;9.198;2023-12-20T00:27:25;13.00;;;9.90;;
11113;SDS011;5610;52.154;9.198;2023-12-20T00:30:10;10.70;;;9.10;;
11113;SDS011;5610;52.154;9.198;2023-12-20T00:32:56;10.13;;;8.00;;
11113;SDS011;5610;52.154;9.198;2023-12-20T00:35:42;9.50;;;8.50;;
11113;SDS011;5610;52.154;9.198;2023-12-20T00:38:28;9.67;;;7.83;;
11113;SDS011;5610;52.154;9.198;2023-12-20T00:41:13;15.30;;;9.10;;
11113;SDS011;5610;52.154;9.198;2023-12-20T00:43:58;12.23;;;8.83;;
11113;SDS011;5610;52.154;9.198;2023-12-20T00:46:43;10.63;;;8.73;;
11113;SDS011;5610;52.154;9.198;2023-12-20T00:49:28;10.87;;;9.37;;
11113;SDS011;5610;52.154;9.198;2023-12-20T00:52:15;13.80;;;8.87;;
11113;SDS011;5610;52.154;9.198;2023-12-20T00:55:00;10.67;;;8.27;;
11113;SDS011;5610;52.154;9.198;2023-12-20T00:57:46;11.20;;;7.63;;
11113;SDS011;5610;52.154;9.198;2023-12-20T01:00:31;8.50;;;5.20;;
11113;SDS011;5610;52.154;9.198;2023-12-20T01:03:16;7.07;;;4.60;;
11113;SDS011;5610;52.154;9.198;2023-12-20T01:06:02;10.10;;;4.23;;
11113;SDS011;5610;52.154;9.198;2023-12-20T01:08:49;9.20;;;4.27;;
11113;SDS011;5610;52.154;9.198;2023-12-20T01:11:35;6.97;;;4.87;;
11113;SDS011;5610;52.154;9.198;2023-12-20T01:14:20;6.43;;;4.57;;
11113;SDS011;5610;52.154;9.198;2023-12-20T01:17:05;8.23;;;4.67;;
11113;SDS011;5610;52.154;9.198;2023-12-20T01:19:51;10.53;;;4.27;;
11113;SDS011;5610;52.154;9.198;2023-12-20T01:22:36;10.57;;;4.80;;
11113;SDS011;5610;52.154;9.198;2023-12-20T01:25:22;7.50;;;4.87;;
11113;SDS011;5610;52.154;9.198;2023-12-20T01:28:07;5.90;;;4.77;;
11113;SDS011;5610;52.154;9.198;2023-12-20T01:30:53;10.33;;;5.30;;
11113;SDS011;5610;52.154;9.198;2023-12-20T01:33:38;9.10;;;4.80;;
11113;SDS011;5610;52.154;9.198;2023-12-20T01:36:23;5.70;;;4.33;;
11113;SDS011;5610;52.154;9.198;2023-12-20T01:39:08;7.03;;;3.70;;
11113;SDS011;5610;52.154;9.198;2023-12-20T01:41:55;5.03;;;3.60;;
11113;SDS011;5610;52.154;9.198;2023-12-20T01:44:40;4.73;;;3.17;;
11113;SDS011;5610;52.154;9.198;2023-12-20T01:47:25;12.40;;;3.60;;
11113;SDS011;5610;52.154;9.198;2023-12-20T01:50:10;6.67;;;3.33;;
11113;SDS011;5610;52.154;9.198;2023-12-20T01:52:56;10.83;;;4.20;;
11113;SDS011;5610;52.154;9.198;2023-12-20T01:55:44;9.47;;;3.77;;
11113;SDS011;5610;52.154;9.198;2023-12-20T01:58:31;7.93;;;3.43;;
11113;SDS011;5610;52.154;9.198;2023-12-20T02:01:17;10.27;;;4.97;;
11113;SDS011;5610;52.154;9.198;2023-12-20T02:04:02;6.73;;;3.60;;
11113;SDS011;5610;52.154;9.198;2023-12-20T02:06:48;7.07;;;3.23;;
11113;SDS011;5610;52.154;9.198;2023-12-20T02:09:37;7.40;;;3.10;;
11113;SDS011;5610;52.154;9.198;2023-12-20T02:12:23;7.40;;;3.77;;
11113;SDS011;5610;52.154;9.198;2023-12-20T02:15:10;6.97;;;3.13;;
11113;SDS011;5610;52.154;9.198;2023-12-20T02:17:55;5.60;;;2.80;;
11113;SDS011;5610;52.154;9.198;2023-12-20T02:20:40;6.77;;;3.47;;
11113;SDS011;5610;52.154;9.198;2023-12-20T02:23:27;6.90;;;2.70;;
11113;SDS011;5610;52.154;9.198;2023-12-20T02:26:12;6.73;;;2.70;;
11113;SDS011;5610;52.154;9.198;2023-12-20T02:28:57;7.00;;;2.90;;
11113;SDS011;5610;52.154;9.198;2023-12-20T02:31:43;5.47;;;3.03;;
11113;SDS011;5610;52.154;9.198;2023-12-20T02:34:28;6.67;;;2.90;;
11113;SDS011;5610;52.154;9.198;2023-12-20T02:37:14;10.67;;;2.67;;
11113;SDS011;5610;52.154;9.198;2023-12-20T02:40:01;9.17;;;2.90;;
11113;SDS011;5610;52.154;9.198;2023-12-20T02:42:48;5.23;;;2.63;;
11113;SDS011;5610;52.154;9.198;2023-12-20T02:45:33;7.03;;;2.43;;
11113;SDS011;5610;52.154;9.198;2023-12-20T02:48:18;7.80;;;2.17;;
11113;SDS011;5610;52.154;9.198;2023-12-20T02:51:03;6.77;;;2.20;;
11113;SDS011;5610;52.154;9.198;2023-12-20T02:53:48;11.90;;;3.23;;
11113;SDS011;5610;52.154;9.198;2023-12-20T02:56:35;7.03;;;2.23;;
11113;SDS011;5610;52.154;9.198;2023-12-20T02:59:21;7.00;;;2.67;;
11113;SDS011;5610;52.154;9.198;2023-12-20T03:02:06;11.13;;;3.07;;
11113;SDS011;5610;52.154;9.198;2023-12-20T03:04:51;6.30;;;2.50;;
11113;SDS011;5610;52.154;9.198;2023-12-20T03:07:36;3.90;;;2.67;;
11113;SDS011;5610;52.154;9.198;2023-12-20T03:10:21;5.00;;;2.07;;
11113;SDS011;5610;52.154;9.198;2023-12-20T03:13:08;6.67;;;2.47;;
11113;SDS011;5610;52.154;9.198;2023-12-20T03:15:53;6.30;;;2.20;;
11113;SDS011;5610;52.154;9.198;2023-12-20T03:18:38;10.00;;;3.80;;
11113;SDS011;5610;52.154;9.198;2023-12-20T03:21:24;5.10;;;2.50;;
11113;SDS011;5610;52.154;9.198;2023-12-20T03:24:09;19.97;;;2.97;;
11113;SDS011;5610;52.154;9.198;2023-12-20T03:26:54;9.10;;;2.83;;
11113;SDS011;5610;52.154;9.198;2023-12-20T03:29:40;6.80;;;3.00;;
11113;SDS011;5610;52.154;9.198;2023-12-20T03:32:25;10.27;;;2.60;;
11113;SDS011;5610;52.154;9.198;2023-12-20T03:35:10;8.50;;;2.63;;
11113;SDS011;5610;52.154;9.198;2023-12-20T03:37:56;8.80;;;3.37;;
11113;SDS011;5610;52.154;9.198;2023-12-20T03:40:43;4.80;;;2.77;;
11113;SDS011;5610;52.154;9.198;2023-12-20T03:43:28;6.90;;;2.93;;
11113;SDS011;5610;52.154;9.198;2023-12-20T03:46:15;4.03;;;2.90;;
11113;SDS011;5610;52.154;9.198;2023-12-20T03:49:00;5.90;;;3.20;;
11113;SDS011;5610;52.154;9.198;2023-12-20T03:51:45;9.43;;;3.20;;
11113;SDS011;5610;52.154;9.198;2023-12-20T03:54:30;7.83;;;3.10;;
11113;SDS011;5610;52.154;9.198;2023-12-20T03:57:15;9.70;;;3.17;;
11113;SDS011;5610;52.154;9.198;2023-12-20T04:00:01;5.73;;;2.93;;
11113;SDS011;5610;52.154;9.198;2023-12-20T04:02:57;10.13;;;3.30;;
11113;SDS011;5610;52.154;9.198;2023-12-20T04:05:42;10.60;;;3.13;;
11113;SDS011;5610;52.154;9.198;2023-12-20T04:08:27;11.13;;;3.67;;
11113;SDS011;5610;52.154;9.198;2023-12-20T04:11:12;12.33;;;3.80;;
11113;SDS011;5610;52.154;9.198;2023-12-20T04:13:57;9.50;;;3.80;;
11113;SDS011;5610;52.154;9.198;2023-12-20T04:16:43;7.20;;;4.03;;
11113;SDS011;5610;52.154;9.198;2023-12-20T04:19:29;9.83;;;3.23;;
11113;SDS011;5610;52.154;9.198;2023-12-20T04:22:15;7.10;;;3.30;;
11113;SDS011;5610;52.154;9.198;2023-12-20T04:25:00;8.63;;;4.00;;
11113;SDS011;5610;52.154;9.198;2023-12-20T04:27:45;20.03;;;3.80;;
11113;SDS011;5610;52.154;9.198;2023-12-20T04:30:30;17.33;;;4.70;;
11113;SDS011;5610;52.154;9.198;2023-12-20T04:33:15;11.10;;;4.27;;
11113;SDS011;5610;52.154;9.198;2023-12-20T04:36:02;9.90;;;4.30;;
11113;SDS011;5610;52.154;9.198;2023-12-20T04:38:48;12.97;;;4.20;;
11113;SDS011;5610;52.154;9.198;2023-12-20T04:41:33;14.37;;;4.53;;
11113;SDS011;5610;52.154;9.198;2023-12-20T04:44:18;13.87;;;4.27;;
11113;SDS011;5610;52.154;9.198;2023-12-20T04:47:04;10.40;;;4.60;;
11113;SDS011;5610;52.154;9.198;2023-12-20T04:49:49;16.30;;;4.47;;
11113;SDS011;5610;52.154;9.198;2023-12-20T04:52:36;21.27;;;5.03;;
11113;SDS011;5610;52.154;9.198;2023-12-20T04:55:21;10.13;;;4.33;;
11113;SDS011;5610;52.154;9.198;2023-12-20T04:58:06;10.20;;;4.97;;
11113;SDS011;5610;52.154;9.198;2023-12-20T05:00:51;13.77;;;5.40;;
11113;SDS011;5610;52.154;9.198;2023-12-20T05:03:37;18.83;;;4.77;;
11113;SDS011;5610;52.154;9.198;2023-12-20T05:06:22;14.30;;;5.67;;
11113;SDS011;5610;52.154;9.198;2023-12-20T05:09:09;7.60;;;4.97;;
11113;SDS011;5610;52.154;9.198;2023-12-20T05:11:55;12.47;;;5.03;;
11113;SDS011;5610;52.154;9.198;2023-12-20T05:14:40;11.70;;;4.67;;
11113;SDS011;5610;52.154;9.198;2023-12-20T05:17:25;29.60;;;5.97;;
11113;SDS011;5610;52.154;9.198;2023-12-20T05:20:11;11.87;;;4.77;;
11113;SDS011;5610;52.154;9.198;2023-12-20T05:22:56;11.63;;;5.53;;
11113;SDS011;5610;52.154;9.198;2023-12-20T05:25:43;8.93;;;5.60;;
11113;SDS011;5610;52.154;9.198;2023-12-20T05:28:28;13.03;;;5.30;;
11113;SDS011;5610;52.154;9.198;2023-12-20T05:31:13;11.37;;;5.73;;
11113;SDS011;5610;52.154;9.198;2023-12-20T05:33:58;9.93;;;5.00;;
11113;SDS011;5610;52.154;9.198;2023-12-20T05:36:44;22.07;;;6.13;;
11113;SDS011;5610;52.154;9.198;2023-12-20T05:39:29;19.80;;;6.13;;
11113;SDS011;5610;52.154;9.198;2023-12-20T05:42:15;15.13;;;6.07;;
11113;SDS011;5610;52.154;9.198;2023-12-20T05:45:01;15.93;;;5.73;;
11113;SDS011;5610;52.154;9.198;2023-12-20T05:47:46;14.70;;;5.00;;
11113;SDS011;5610;52.154;9.198;2023-12-20T05:50:31;17.13;;;5.90;;
11113;SDS011;5610;52.154;9.198;2023-12-20T05:53:16;22.73;;;6.77;;
11113;SDS011;5610;52.154;9.198;2023-12-20T05:56:01;15.93;;;6.00;;
11113;SDS011;5610;52.154;9.198;2023-12-20T05:58:48;11.93;;;4.70;;
11113;SDS011;5610;52.154;9.198;2023-12-20T06:01:33;12.03;;;5.07;;
11113;SDS011;5610;52.154;9.198;2023-12-20T06:04:19;23.97;;;5.50;;
11113;SDS011;5610;52.154;9.198;2023-12-20T06:07:04;16.63;;;6.10;;
11113;SDS011;5610;52.154;9.198;2023-12-20T06:09:48;11.93;;;4.77;;
11113;SDS011;5610;52.154;9.198;2023-12-20T06:12:34;8.73;;;4.47;;
11113;SDS011;5610;52.154;9.198;2023-12-20T06:15:21;8.30;;;4.47;;
11113;SDS011;5610;52.154;9.198;2023-12-20T06:18:07;9.60;;;4.90;;
11113;SDS011;5610;52.154;9.198;2023-12-20T06:20:52;13.00;;;5.17;;
11113;SDS011;5610;52.154;9.198;2023-12-20T06:23:37;8.70;;;5.20;;
11113;SDS011;5610;52.154;9.198;2023-12-20T06:26:23;8.50;;;4.10;;
11113;SDS011;5610;52.154;9.198;2023-12-20T06:29:08;9.57;;;4.50;;
11113;SDS011;5610;52.154;9.198;2023-12-20T06:31:54;13.80;;;4.27;;
11113;SDS011;5610;52.154;9.198;2023-12-20T06:34:40;17.63;;;5.53;;
11113;SDS011;5610;52.154;9.198;2023-12-20T06:37:25;10.70;;;4.77;;
11113;SDS011;5610;52.154;9.198;2023-12-20T06:40:10;10.23;;;4.53;;
11113;SDS011;5610;52.154;9.198;2023-12-20T06:42:56;13.00;;;5.57;;
11113;SDS011;5610;52.154;9.198;2023-12-20T06:45:41;10.60;;;5.37;;
11113;SDS011;5610;52.154;9.198;2023-12-20T06:48:28;11.50;;;4.53;;
11113;SDS011;5610;52.154;9.198;2023-12-20T06:51:14;11.80;;;5.03;;
11113;SDS011;5610;52.154;9.198;2023-12-20T06:54:00;10.13;;;5.33;;
11113;SDS011;5610;52.154;9.198;2023-12-20T06:56:46;17.50;;;7.33;;
11113;SDS011;5610;52.154;9.198;2023-12-20T06:59:31;9.13;;;4.97;;
11113;SDS011;5610;52.154;9.198;2023-12-20T07:02:17;12.63;;;4.90;;
11113;SDS011;5610;52.154;9.198;2023-12-20T07:05:04;15.17;;;5.90;;
11113;SDS011;5610;52.154;9.198;2023-12-20T07:07:50;9.77;;;4.90;;
11113;SDS011;5610;52.154;9.198;2023-12-20T07:10:35;15.30;;;4.97;;
11113;SDS011;5610;52.154;9.198;2023-12-20T07:13:20;16.47;;;5.47;;
11113;SDS011;5610;52.154;9.198;2023-12-20T07:16:06;10.67;;;5.20;;
11113;SDS011;5610;52.154;9.198;2023-12-20T07:18:52;13.30;;;5.10;;
11113;SDS011;5610;52.154;9.198;2023-12-20T07:21:39;10.43;;;5.10;;
11113;SDS011;5610;52.154;9.198;2023-12-20T07:24:24;15.63;;;5.87;;
11113;SDS011;5610;52.154;9.198;2023-12-20T07:27:09;11.90;;;6.27;;
11113;SDS011;5610;52.154;9.198;2023-12-20T07:29:54;15.83;;;6.90;;
11113;SDS011;5610;52.154;9.198;2023-12-20T07:32:39;12.00;;;6.30;;
11113;SDS011;5610;52.154;9.198;2023-12-20T07:35:24;17.10;;;6.90;;
11113;SDS011;5610;52.154;9.198;2023-12-20T07:38:11;15.40;;;6.40;;
11113;SDS011;5610;52.154;9.198;2023-12-20T07:40:57;14.40;;;6.87;;
11113;SDS011;5610;52.154;9.198;2023-12-20T07:43:42;10.23;;;6.20;;
11113;SDS011;5610;52.154;9.198;2023-12-20T07:46:27;12.80;;;6.10;;
11113;SDS011;5610;52.154;9.198;2023-12-20T07:49:13;18.10;;;6.50;;
11113;SDS011;5610;52.154;9.198;2023-12-20T07:51:58;15.80;;;6.57;;
11113;SDS011;5610;52.154;9.198;2023-12-20T07:54:45;14.40;;;6.60;;
11113;SDS011;5610;52.154;9.198;2023-12-20T07:57:30;13.40;;;5.97;;
11113;SDS011;5610;52.154;9.198;2023-12-20T08:00:16;13.87;;;6.50;;
11113;SDS011;5610;52.154;9.198;2023-12-20T08:03:02;15.63;;;7.40;;
11113;SDS011;5610;52.154;9.198;2023-12-20T08:05:47;16.77;;;7.60;;
11113;SDS011;5610;52.154;9.198;2023-12-20T08:08:33;10.83;;;6.07;;
11113;SDS011;5610;52.154;9.198;2023-12-20T08:11:19;18.03;;;6.57;;
11113;SDS011;5610;52.154;9.198;2023-12-20T08:14:04;14.43;;;6.77;;
11113;SDS011;5610;52.154;9.198;2023-12-20T08:16:50;18.63;;;7.10;;
11113;SDS011;5610;52.154;9.198;2023-12-20T08:19:35;18.73;;;5.90;;
11113;SDS011;5610;52.154;9.198;2023-12-20T08:22:20;16.23;;;7.40;;
11113;SDS011;5610;52.154;9.198;2023-12-20T08:25:05;15.50;;;6.00;;
11113;SDS011;5610;52.154;9.198;2023-12-20T08:27:53;13.00;;;6.33;;
11113;SDS011;5610;52.154;9.198;2023-12-20T08:30:39;18.07;;;6.50;;
11113;SDS011;5610;52.154;9.198;2023-12-20T08:33:24;17.13;;;7.43;;
11113;SDS011;5610;52.154;9.198;2023-12-20T08:36:10;17.90;;;6.77;;
11113;SDS011;5610;52.154;9.198;2023-12-20T08:38:55;13.77;;;5.30;;
11113;SDS011;5610;52.154;9.198;2023-12-20T08:41:40;11.93;;;5.60;;
11113;SDS011;5610;52.154;9.198;2023-12-20T08:44:27;7.73;;;4.70;;
11113;SDS011;5610;52.154;9.198;2023-12-20T08:47:12;14.17;;;5.50;;
11113;SDS011;5610;52.154;9.198;2023-12-20T08:49:59;12.17;;;5.57;;
11113;SDS011;5610;52.154;9.198;2023-12-20T08:52:45;11.20;;;5.03;;
11113;SDS011;5610;52.154;9.198;2023-12-20T08:55:31;8.90;;;4.63;;
11113;SDS011;5610;52.154;9.198;2023-12-20T08:58:16;15.23;;;6.20;;
11113;SDS011;5610;52.154;9.198;2023-12-20T09:01:03;17.70;;;5.07;;
11113;SDS011;5610;52.154;9.198;2023-12-20T09:03:48;16.30;;;4.63;;
11113;SDS011;5610;52.154;9.198;2023-12-20T09:06:33;13.57;;;4.97;;
11113;SDS011;5610;52.154;9.198;2023-12-20T09:09:18;12.10;;;5.37;;
11113;SDS011;5610;52.154;9.198;2023-12-20T09:12:03;11.07;;;4.87;;
11113;SDS011;5610;52.154;9.198;2023-12-20T09:14:49;12.77;;;5.57;;
11113;SDS011;5610;52.154;9.198;2023-12-20T09:17:37;11.80;;;5.10;;
11113;SDS011;5610;52.154;9.198;2023-12-20T09:20:22;21.27;;;5.40;;
11113;SDS011;5610;52.154;9.198;2023-12-20T09:23:08;14.70;;;5.00;;
11113;SDS011;5610;52.154;9.198;2023-12-20T09:25:53;15.73;;;5.63;;
11113;SDS011;5610;52.154;9.198;2023-12-20T09:28:38;12.87;;;5.30;;
11113;SDS011;5610;52.154;9.198;2023-12-20T09:31:24;13.43;;;5.00;;
11113;SDS011;5610;52.154;9.198;2023-12-20T09:34:10;14.73;;;5.80;;
11113;SDS011;5610;52.154;9.198;2023-12-20T09:36:55;12.37;;;6.07;;
11113;SDS011;5610;52.154;9.198;2023-12-20T09:39:41;14.57;;;5.80;;
11113;SDS011;5610;52.154;9.198;2023-12-20T09:42:29;15.00;;;5.90;;
11113;SDS011;5610;52.154;9.198;2023-12-20T09:45:23;10.70;;;5.83;;
11113;SDS011;5610;52.154;9.198;2023-12-20T09:48:08;16.80;;;7.10;;
11113;SDS011;5610;52.154;9.198;2023-12-20T09:50:57;11.57;;;6.17;;
11113;SDS011;5610;52.154;9.198;2023-12-20T09:53:42;18.63;;;5.90;;
11113;SDS011;5610;52.154;9.198;2023-12-20T09:56:29;17.10;;;5.60;;
11113;SDS011;5610;52.154;9.198;2023-12-20T09:59:14;15.67;;;6.37;;
11113;SDS011;5610;52.154;9.198;2023-12-20T10:02:00;15.87;;;8.10;;
11113;SDS011;5610;52.154;9.198;2023-12-20T10:04:47;14.37;;;5.77;;
11113;SDS011;5610;52.154;9.198;2023-12-20T10:07:34;8.93;;;6.50;;
11113;SDS011;5610;52.154;9.198;2023-12-20T10:10:19;13.10;;;4.73;;
11113;SDS011;5610;52.154;9.198;2023-12-20T10:13:05;13.63;;;6.30;;
11113;SDS011;5610;52.154;9.198;2023-12-20T10:15:52;9.23;;;5.80;;
11113;SDS011;5610;52.154;9.198;2023-12-20T10:18:39;12.50;;;6.27;;
11113;SDS011;5610;52.154;9.198;2023-12-20T10:21:25;11.77;;;5.63;;
11113;SDS011;5610;52.154;9.198;2023-12-20T10:24:15;11.63;;;6.07;;
11113;SDS011;5610;52.154;9.198;2023-12-20T10:27:02;17.23;;;6.80;;
11113;SDS011;5610;52.154;9.198;2023-12-20T10:29:48;12.40;;;5.80;;
11113;SDS011;5610;52.154;9.198;2023-12-20T10:32:34;16.47;;;7.37;;
11113;SDS011;5610;52.154;9.198;2023-12-20T10:35:19;15.00;;;7.00;;
11113;SDS011;5610;52.154;9.198;2023-12-20T10:38:05;22.13;;;7.20;;
11113;SDS011;5610;52.154;9.198;2023-12-20T10:40:53;12.20;;;7.27;;
11113;SDS011;5610;52.154;9.198;2023-12-20T10:43:41;13.60;;;6.80;;
11113;SDS011;5610;52.154;9.198;2023-12-20T10:46:27;12.30;;;6.77;;
11113;SDS011;5610;52.154;9.198;2023-12-20T10:49:13;9.70;;;6.90;;
11113;SDS011;5610;52.154;9.198;2023-12-20T10:52:00;16.10;;;8.00;;
11113;SDS011;5610;52.154;9.198;2023-12-20T10:54:48;15.40;;;7.13;;
11113;SDS011;5610;52.154;9.198;2023-12-20T10:57:35;15.33;;;7.63;;
11113;SDS011;5610;52.154;9.198;2023-12-20T11:00:21;11.07;;;5.80;;
11113;SDS011;5610;52.154;9.198;2023-12-20T11:03:08;17.43;;;7.23;;
11113;SDS011;5610;52.154;9.198;2023-12-20T11:05:55;16.27;;;6.23;;
11113;SDS011;5610;52.154;9.198;2023-12-20T11:08:48;9.07;;;5.20;;
11113;SDS011;5610;52.154;9.198;2023-12-20T11:11:45;12.53;;;5.20;;
11113;SDS011;5610;52.154;9.198;2023-12-20T11:14:46;12.93;;;4.57;;
11113;SDS011;5610;52.154;9.198;2023-12-20T11:17:32;10.83;;;5.10;;
11113;SDS011;5610;52.154;9.198;2023-12-20T11:20:18;12.10;;;4.57;;
11113;SDS011;5610;52.154;9.198;2023-12-20T11:23:03;15.47;;;5.67;;
11113;SDS011;5610;52.154;9.198;2023-12-20T11:25:49;14.70;;;4.80;;
11113;SDS011;5610;52.154;9.198;2023-12-20T11:28:37;14.80;;;5.80;;
11113;SDS011;5610;52.154;9.198;2023-12-20T11:31:24;11.40;;;4.13;;
11113;SDS011;5610;52.154;9.198;2023-12-20T11:34:14;11.20;;;5.17;;
11113;SDS011;5610;52.154;9.198;2023-12-20T11:37:02;11.97;;;4.30;;
11113;SDS011;5610;52.154;9.198;2023-12-20T11:39:53;6.83;;;3.77;;
11113;SDS011;5610;52.154;9.198;2023-12-20T11:42:40;7.83;;;3.90;;
11113;SDS011;5610;52.154;9.198;2023-12-20T11:45:25;7.27;;;3.80;;
11113;SDS011;5610;52.154;9.198;2023-12-20T11:48:12;5.90;;;3.00;;
11113;SDS011;5610;52.154;9.198;2023-12-20T11:50:58;5.77;;;3.10;;
11113;SDS011;5610;52.154;9.198;2023-12-20T11:53:44;5.07;;;2.50;;
11113;SDS011;5610;52.154;9.198;2023-12-20T11:56:29;8.97;;;3.27;;
11113;SDS011;5610;52.154;9.198;2023-12-20T11:59:14;6.10;;;3.13;;
11113;SDS011;5610;52.154;9.198;2023-12-20T12:02:00;6.53;;;3.03;;
11113;SDS011;5610;52.154;9.198;2023-12-20T12:04:46;8.33;;;2.93;;
11113;SDS011;5610;52.154;9.198;2023-12-20T12:07:34;11.03;;;3.40;;
11113;SDS011;5610;52.154;9.198;2023-12-20T12:10:20;8.27;;;3.30;;
11113;SDS011;5610;52.154;9.198;2023-12-20T12:13:05;8.80;;;3.70;;
11113;SDS011;5610;52.154;9.198;2023-12-20T12:15:51;9.20;;;3.70;;
11113;SDS011;5610;52.154;9.198;2023-12-20T12:18:37;9.50;;;3.97;;
11113;SDS011;5610;52.154;9.198;2023-12-20T12:21:23;9.50;;;3.33;;
11113;SDS011;5610;52.154;9.198;2023-12-20T12:24:09;7.43;;;3.27;;
11113;SDS011;5610;52.154;9.198;2023-12-20T12:26:56;2.97;;;1.63;;
11113;SDS011;5610;52.154;9.198;2023-12-20T12:32:46;3.77;;;1.53;;
11113;SDS011;5610;52.154;9.198;2023-12-20T12:35:31;3.33;;;1.37;;
11113;SDS011;5610;52.154;9.198;2023-12-20T12:38:19;5.90;;;1.40;;
11113;SDS011;5610;52.154;9.198;2023-12-20T12:41:05;4.90;;;1.30;;
11113;SDS011;5610;52.154;9.198;2023-12-20T12:43:50;2.77;;;1.80;;
11113;SDS011;5610;52.154;9.198;2023-12-20T12:46:36;4.30;;;1.97;;
11113;SDS011;5610;52.154;9.198;2023-12-20T12:49:22;4.90;;;2.03;;
11113;SDS011;5610;52.154;9.198;2023-12-20T12:52:07;9.50;;;2.37;;
11113;SDS011;5610;52.154;9.198;2023-12-20T12:54:54;10.30;;;3.13;;
11113;SDS011;5610;52.154;9.198;2023-12-20T12:57:39;3.57;;;2.80;;
11113;SDS011;5610;52.154;9.198;2023-12-20T13:00:25;7.43;;;3.10;;
11113;SDS011;5610;52.154;9.198;2023-12-20T13:03:10;9.27;;;3.27;;
11113;SDS011;5610;52.154;9.198;2023-12-20T13:05:55;10.77;;;4.00;;
11113;SDS011;5610;52.154;9.198;2023-12-20T13:08:40;6.83;;;3.00;;
11113;SDS011;5610;52.154;9.198;2023-12-20T13:11:27;10.90;;;3.90;;
11113;SDS011;5610;52.154;9.198;2023-12-20T13:14:12;11.30;;;3.80;;
11113;SDS011;5610;52.154;9.198;2023-12-20T13:16:59;7.03;;;2.50;;
11113;SDS011;5610;52.154;9.198;2023-12-20T13:19:44;4.93;;;2.17;;
11113;SDS011;5610;52.154;9.198;2023-12-20T13:22:31;5.70;;;2.00;;
11113;SDS011;5610;52.154;9.198;2023-12-20T13:25:16;6.77;;;2.57;;
11113;SDS011;5610;52.154;9.198;2023-12-20T13:28:03;5.57;;;2.30;;
11113;SDS011;5610;52.154;9.198;2023-12-20T13:30:49;2.90;;;2.63;;
11113;SDS011;5610;52.154;9.198;2023-12-20T13:33:34;11.90;;;4.13;;
11113;SDS011;5610;52.154;9.198;2023-12-20T13:36:20;9.10;;;3.43;;
11113;SDS011;5610;52.154;9.198;2023-12-20T13:39:05;7.30;;;2.10;;
11113;SDS011;5610;52.154;9.198;2023-12-20T13:41:51;7.80;;;3.00;;
11113;SDS011;5610;52.154;9.198;2023-12-20T13:44:38;6.13;;;2.20;;
11113;SDS011;5610;52.154;9.198;2023-12-20T13:47:23;5.07;;;1.50;;
11113;SDS011;5610;52.154;9.198;2023-12-20T13:50:09;9.40;;;2.60;;
11113;SDS011;5610;52.154;9.198;2023-12-20T13:52:54;2.67;;;1.40;;
11113;SDS011;5610;52.154;9.198;2023-12-20T13:55:39;4.47;;;1.70;;
11113;SDS011;5610;52.154;9.198;2023-12-20T13:58:25;4.13;;;1.63;;
11113;SDS011;5610;52.154;9.198;2023-12-20T14:01:12;9.40;;;2.03;;
11113;SDS011;5610;52.154;9.198;2023-12-20T14:03:57;8.37;;;2.03;;
11113;SDS011;5610;52.154;9.198;2023-12-20T14:06:44;5.53;;;1.73;;
11113;SDS011;5610;52.154;9.198;2023-12-20T14:09:29;3.97;;;1.50;;
11113;SDS011;5610;52.154;9.198;2023-12-20T14:12:14;6.60;;;1.80;;
11113;SDS011;5610;52.154;9.198;2023-12-20T14:14:59;4.90;;;2.10;;
11113;SDS011;5610;52.154;9.198;2023-12-20T14:17:47;2.80;;;1.43;;
11113;SDS011;5610;52.154;9.198;2023-12-20T14:20:33;6.13;;;2.40;;
11113;SDS011;5610;52.154;9.198;2023-12-20T14:23:18;4.57;;;1.57;;
11113;SDS011;5610;52.154;9.198;2023-12-20T14:26:04;3.80;;;1.60;;
11113;SDS011;5610;52.154;9.198;2023-12-20T14:28:49;3.53;;;1.90;;
11113;SDS011;5610;52.154;9.198;2023-12-20T14:31:34;7.30;;;2.03;;
11113;SDS011;5610;52.154;9.198;2023-12-20T14:34:22;4.00;;;1.70;;
11113;SDS011;5610;52.154;9.198;2023-12-20T14:37:08;5.00;;;1.90;;
11113;SDS011;5610;52.154;9.198;2023-12-20T14:39:53;7.20;;;2.03;;
11113;SDS011;5610;52.154;9.198;2023-12-20T14:42:38;6.53;;;2.20;;
11113;SDS011;5610;52.154;9.198;2023-12-20T14:45:24;9.13;;;2.53;;
11113;SDS011;5610;52.154;9.198;2023-12-20T14:48:11;5.23;;;1.80;;
11113;SDS011;5610;52.154;9.198;2023-12-20T14:50:58;4.17;;;1.70;;
11113;SDS011;5610;52.154;9.198;2023-12-20T14:53:44;4.73;;;1.50;;
11113;SDS011;5610;52.154;9.198;2023-12-20T14:56:30;8.27;;;2.30;;
11113;SDS011;5610;52.154;9.198;2023-12-20T14:59:15;4.60;;;1.97;;
11113;SDS011;5610;52.154;9.198;2023-12-20T15:02:01;8.23;;;2.30;;
11113;SDS011;5610;52.154;9.198;2023-12-20T15:04:48;6.80;;;1.80;;
11113;SDS011;5610;52.154;9.198;2023-12-20T15:07:36;4.63;;;1.77;;
11113;SDS011;5610;52.154;9.198;2023-12-20T15:10:21;7.10;;;2.27;;
11113;SDS011;5610;52.154;9.198;2023-12-20T15:13:07;6.17;;;1.90;;
11113;SDS011;5610;52.154;9.198;2023-12-20T15:15:52;5.40;;;1.70;;
11113;SDS011;5610;52.154;9.198;2023-12-20T15:18:37;7.80;;;1.97;;
11113;SDS011;5610;52.154;9.198;2023-12-20T15:21:22;7.53;;;2.00;;
11113;SDS011;5610;52.154;9.198;2023-12-20T15:24:16;7.33;;;2.13;;
11113;SDS011;5610;52.154;9.198;2023-12-20T15:27:03;2.90;;;1.50;;
11113;SDS011;5610;52.154;9.198;2023-12-20T15:29:49;10.43;;;2.00;;
11113;SDS011;5610;52.154;9.198;2023-12-20T15:32:35;6.90;;;1.70;;
11113;SDS011;5610;52.154;9.198;2023-12-20T15:35:20;3.53;;;2.20;;
11113;SDS011;5610;52.154;9.198;2023-12-20T15:38:05;7.83;;;2.17;;
11113;SDS011;5610;52.154;9.198;2023-12-20T15:40:52;6.50;;;1.90;;
11113;SDS011;5610;52.154;9.198;2023-12-20T15:43:39;4.47;;;1.63;;
11113;SDS011;5610;52.154;9.198;2023-12-20T15:46:24;5.57;;;2.00;;
11113;SDS011;5610;52.154;9.198;2023-12-20T15:49:09;7.97;;;2.20;;
11113;SDS011;5610;52.154;9.198;2023-12-20T15:51:55;6.43;;;2.13;;
11113;SDS011;5610;52.154;9.198;2023-12-20T15:54:41;7.53;;;2.00;;
11113;SDS011;5610;52.154;9.198;2023-12-20T15:57:28;3.73;;;2.17;;
11113;SDS011;5610;52.154;9.198;2023-12-20T16:00:15;8.23;;;2.53;;
11113;SDS011;5610;52.154;9.198;2023-12-20T16:03:01;6.70;;;2.13;;
11113;SDS011;5610;52.154;9.198;2023-12-20T16:05:47;5.47;;;3.00;;
11113;SDS011;5610;52.154;9.198;2023-12-20T16:08:32;6.27;;;2.17;;
11113;SDS011;5610;52.154;9.198;2023-12-20T16:11:17;4.40;;;1.90;;
11113;SDS011;5610;52.154;9.198;2023-12-20T16:14:04;8.57;;;2.60;;
11113;SDS011;5610;52.154;9.198;2023-12-20T16:16:49;5.17;;;2.10;;
11113;SDS011;5610;52.154;9.198;2023-12-20T16:19:34;4.90;;;2.23;;
11113;SDS011;5610;52.154;9.198;2023-12-20T16:22:19;3.13;;;2.13;;
11113;SDS011;5610;52.154;9.198;2023-12-20T16:25:05;5.80;;;2.30;;
11113;SDS011;5610;52.154;9.198;2023-12-20T16:27:50;7.30;;;2.60;;
11113;SDS011;5610;52.154;9.198;2023-12-20T16:30:37;9.30;;;3.20;;
11113;SDS011;5610;52.154;9.198;2023-12-20T16:33:22;8.23;;;3.50;;
11113;SDS011;5610;52.154;9.198;2023-12-20T16:36:07;7.90;;;3.00;;
11113;SDS011;5610;52.154;9.198;2023-12-20T16:38:53;5.20;;;3.17;;
11113;SDS011;5610;52.154;9.198;2023-12-20T16:41:38;7.43;;;4.40;;
11113;SDS011;5610;52.154;9.198;2023-12-20T16:44:24;10.43;;;4.10;;
11113;SDS011;5610;52.154;9.198;2023-12-20T16:47:11;8.03;;;3.97;;
11113;SDS011;5610;52.154;9.198;2023-12-20T16:49:56;12.10;;;7.00;;
11113;SDS011;5610;52.154;9.198;2023-12-20T16:52:42;7.87;;;4.07;;